Terminal Aerodrome Forecast
Issued by NWS Boston, MA

Home | Current Version | Previous Version | Text Only | Print | Product List | Glossary On
Versions: 1 2 3 4 5 6 7 8 9 10 11 12 13 14 15 16 17 18 19 20 21 22 23 24
000
FTUS41 KBOX 191739
TAFPVD
TAF
KPVD 191739Z 1918/2018 28019G37KT P6SM SCT040
     FM200000 28011G24KT P6SM FEW250
     FM200600 28011G24KT P6SM SCT045
     FM200800 28011G24KT P6SM SCT250
     FM201500 29018G32KT P6SM BKN045=

USA.gov is the U.S. government's official web portal to all federal, state and local government web resources and services.